sensor_id;sensor_type;location;lat;lon;timestamp;temperature;humidity
42803;DHT22;28447;48.682;9.022;2023-09-08T04:00:17;13.30;99.90
42803;DHT22;28447;48.682;9.022;2023-09-08T04:02:50;13.20;99.90
42803;DHT22;28447;48.682;9.022;2023-09-08T04:05:17;13.20;99.90
42803;DHT22;28447;48.682;9.022;2023-09-08T04:07:45;13.30;99.90
42803;DHT22;28447;48.682;9.022;2023-09-08T04:10:11;13.30;99.90
42803;DHT22;28447;48.682;9.022;2023-09-08T04:12:36;13.30;99.90
42803;DHT22;28447;48.682;9.022;2023-09-08T04:15:02;13.30;99.90
42803;DHT22;28447;48.682;9.022;2023-09-08T04:17:28;13.30;99.90
42803;DHT22;28447;48.682;9.022;2023-09-08T04:19:54;13.20;99.90
42803;DHT22;28447;48.682;9.022;2023-09-08T04:22:20;13.10;99.90
42803;DHT22;28447;48.682;9.022;2023-09-08T04:24:45;13.10;99.90
42803;DHT22;28447;48.682;9.022;2023-09-08T04:27:11;13.10;99.90
42803;DHT22;28447;48.682;9.022;2023-09-08T04:29:36;13.10;99.90
42803;DHT22;28447;48.682;9.022;2023-09-08T04:32:02;13.10;99.90
42803;DHT22;28447;48.682;9.022;2023-09-08T04:34:42;13.10;99.90
42803;DHT22;28447;48.682;9.022;2023-09-08T04:37:08;13.20;99.90
42803;DHT22;28447;48.682;9.022;2023-09-08T04:39:34;13.20;99.90
42803;DHT22;28447;48.682;9.022;2023-09-08T04:42:01;13.20;99.90
42803;DHT22;28447;48.682;9.022;2023-09-08T04:44:27;13.20;99.90
42803;DHT22;28447;48.682;9.022;2023-09-08T04:46:54;13.20;99.90
42803;DHT22;28447;48.682;9.022;2023-09-08T04:49:19;13.10;99.90
42803;DHT22;28447;48.682;9.022;2023-09-08T04:51:45;13.10;99.90
42803;DHT22;28447;48.682;9.022;2023-09-08T04:54:11;13.00;99.90
42803;DHT22;28447;48.682;9.022;2023-09-08T04:56:38;13.00;99.90
42803;DHT22;28447;48.682;9.022;2023-09-08T04:59:05;13.10;99.90
42803;DHT22;28447;48.682;9.022;2023-09-08T05:01:30;13.10;99.90
42803;DHT22;28447;48.682;9.022;2023-09-08T05:04:01;13.20;99.90
42803;DHT22;28447;48.682;9.022;2023-09-08T05:06:27;13.10;99.90
42803;DHT22;28447;48.682;9.022;2023-09-08T05:08:53;13.10;99.90
42803;DHT22;28447;48.682;9.022;2023-09-08T05:11:18;13.20;99.90
42803;DHT22;28447;48.682;9.022;2023-09-08T05:13:45;13.20;99.90
42803;DHT22;28447;48.682;9.022;2023-09-08T05:16:11;13.10;99.90
42803;DHT22;28447;48.682;9.022;2023-09-08T05:18:40;13.20;99.90
42803;DHT22;28447;48.682;9.022;2023-09-08T05:21:09;13.30;99.90
42803;DHT22;28447;48.682;9.022;2023-09-08T05:23:35;13.40;99.90
42803;DHT22;28447;48.682;9.022;2023-09-08T05:26:00;13.50;99.90
42803;DHT22;28447;48.682;9.022;2023-09-08T05:28:26;13.50;99.90
42803;DHT22;28447;48.682;9.022;2023-09-08T05:30:52;13.60;99.90
42803;DHT22;28447;48.682;9.022;2023-09-08T05:33:20;13.60;99.90
42803;DHT22;28447;48.682;9.022;2023-09-08T05:35:46;13.70;99.90
42803;DHT22;28447;48.682;9.022;2023-09-08T05:38:12;13.70;99.90
42803;DHT22;28447;48.682;9.022;2023-09-08T05:40:39;13.80;99.90
42803;DHT22;28447;48.682;9.022;2023-09-08T05:43:04;13.90;99.90
42803;DHT22;28447;48.682;9.022;2023-09-08T05:45:33;14.00;99.90
42803;DHT22;28447;48.682;9.022;2023-09-08T05:47:59;14.10;99.90
42803;DHT22;28447;48.682;9.022;2023-09-08T05:50:25;14.10;99.90
42803;DHT22;28447;48.682;9.022;2023-09-08T05:52:51;14.20;99.90
42803;DHT22;28447;48.682;9.022;2023-09-08T05:55:18;14.30;99.90
42803;DHT22;28447;48.682;9.022;2023-09-08T05:57:44;14.50;99.90
42803;DHT22;28447;48.682;9.022;2023-09-08T06:00:10;14.60;99.90
42803;DHT22;28447;48.682;9.022;2023-09-08T06:02:35;14.70;99.90
42803;DHT22;28447;48.682;9.022;2023-09-08T06:05:01;14.80;99.90
42803;DHT22;28447;48.682;9.022;2023-09-08T06:07:27;14.90;99.90
42803;DHT22;28447;48.682;9.022;2023-09-08T06:09:52;15.10;99.90
42803;DHT22;28447;48.682;9.022;2023-09-08T06:12:20;15.20;99.90
42803;DHT22;28447;48.682;9.022;2023-09-08T06:14:46;15.30;99.90
42803;DHT22;28447;48.682;9.022;2023-09-08T06:17:11;15.40;99.90
42803;DHT22;28447;48.682;9.022;2023-09-08T06:19:37;15.50;99.90
42803;DHT22;28447;48.682;9.022;2023-09-08T06:22:03;16.30;99.90
42803;DHT22;28447;48.682;9.022;2023-09-08T06:24:28;16.40;99.90
42803;DHT22;28447;48.682;9.022;2023-09-08T06:26:54;17.20;99.90
42803;DHT22;28447;48.682;9.022;2023-09-08T06:29:19;16.90;99.90
42803;DHT22;28447;48.682;9.022;2023-09-08T06:31:45;17.10;99.90
42803;DHT22;28447;48.682;9.022;2023-09-08T06:34:11;16.90;99.90
42803;DHT22;28447;48.682;9.022;2023-09-08T06:36:36;16.80;99.90
42803;DHT22;28447;48.682;9.022;2023-09-08T06:39:04;16.80;99.90
42803;DHT22;28447;48.682;9.022;2023-09-08T06:41:29;16.90;99.90
42803;DHT22;28447;48.682;9.022;2023-09-08T06:43:55;17.20;99.90
42803;DHT22;28447;48.682;9.022;2023-09-08T06:48:46;17.60;99.90
42803;DHT22;28447;48.682;9.022;2023-09-08T06:51:12;17.80;99.90
42803;DHT22;28447;48.682;9.022;2023-09-08T06:53:38;17.90;99.90
42803;DHT22;28447;48.682;9.022;2023-09-08T06:56:04;18.00;99.90
42803;DHT22;28447;48.682;9.022;2023-09-08T06:58:30;17.90;99.90
42803;DHT22;28447;48.682;9.022;2023-09-08T07:00:55;18.20;99.90
42803;DHT22;28447;48.682;9.022;2023-09-08T07:03:21;18.30;99.90
42803;DHT22;28447;48.682;9.022;2023-09-08T07:05:48;18.50;99.90
42803;DHT22;28447;48.682;9.022;2023-09-08T07:27:46;20.10;99.90
42803;DHT22;28447;48.682;9.022;2023-09-08T07:42:23;21.10;99.90
42803;DHT22;28447;48.682;9.022;2023-09-08T07:44:50;21.00;99.90
42803;DHT22;28447;48.682;9.022;2023-09-08T07:47:16;21.20;99.90
42803;DHT22;28447;48.682;9.022;2023-09-08T07:49:45;21.30;99.90
42803;DHT22;28447;48.682;9.022;2023-09-08T07:52:14;22.10;99.90
42803;DHT22;28447;48.682;9.022;2023-09-08T07:54:42;21.90;99.90
42803;DHT22;28447;48.682;9.022;2023-09-08T07:57:07;21.80;99.90
42803;DHT22;28447;48.682;9.022;2023-09-08T07:59:33;22.00;99.90
42803;DHT22;28447;48.682;9.022;2023-09-08T08:01:59;22.20;99.90
42803;DHT22;28447;48.682;9.022;2023-09-08T08:04:24;22.20;99.90
42803;DHT22;28447;48.682;9.022;2023-09-08T08:06:50;22.50;99.90
42803;DHT22;28447;48.682;9.022;2023-09-08T08:09:16;22.90;99.90
42803;DHT22;28447;48.682;9.022;2023-09-08T08:11:44;23.70;99.90
42803;DHT22;28447;48.682;9.022;2023-09-08T08:25:01;22.80;99.90
42803;DHT22;28447;48.682;9.022;2023-09-08T08:27:26;22.90;99.90
42803;DHT22;28447;48.682;9.022;2023-09-08T08:29:52;23.10;99.90
42803;DHT22;28447;48.682;9.022;2023-09-08T08:34:52;24.90;99.90
42803;DHT22;28447;48.682;9.022;2023-09-08T08:37:18;25.50;99.90
42803;DHT22;28447;48.682;9.022;2023-09-08T08:39:44;26.80;99.90
42803;DHT22;28447;48.682;9.022;2023-09-08T08:42:10;26.00;99.90
42803;DHT22;28447;48.682;9.022;2023-09-08T08:44:38;27.60;99.90
42803;DHT22;28447;48.682;9.022;2023-09-08T08:47:07;26.00;99.90
42803;DHT22;28447;48.682;9.022;2023-09-08T08:49:33;25.00;99.90
42803;DHT22;28447;48.682;9.022;2023-09-08T08:52:00;24.60;99.90
42803;DHT22;28447;48.682;9.022;2023-09-08T08:54:34;24.40;99.90
42803;DHT22;28447;48.682;9.022;2023-09-08T08:57:03;24.30;99.90
42803;DHT22;28447;48.682;9.022;2023-09-08T08:59:30;25.00;99.90
42803;DHT22;28447;48.682;9.022;2023-09-08T09:01:56;26.00;99.90
42803;DHT22;28447;48.682;9.022;2023-09-08T09:04:22;26.10;99.90
42803;DHT22;28447;48.682;9.022;2023-09-08T09:06:50;26.80;99.90
42803;DHT22;28447;48.682;9.022;2023-09-08T09:09:16;26.40;99.90
42803;DHT22;28447;48.682;9.022;2023-09-08T09:11:42;25.80;99.90
42803;DHT22;28447;48.682;9.022;2023-09-08T09:14:08;25.40;99.90
42803;DHT22;28447;48.682;9.022;2023-09-08T09:16:44;26.10;99.90
42803;DHT22;28447;48.682;9.022;2023-09-08T09:19:20;26.30;99.90
42803;DHT22;28447;48.682;9.022;2023-09-08T09:21:51;26.00;99.90
42803;DHT22;28447;48.682;9.022;2023-09-08T09:24:31;25.60;99.90
42803;DHT22;28447;48.682;9.022;2023-09-08T09:27:00;25.60;99.90
42803;DHT22;28447;48.682;9.022;2023-09-08T09:29:27;25.60;99.90
42803;DHT22;28447;48.682;9.022;2023-09-08T09:31:54;26.20;99.90
42803;DHT22;28447;48.682;9.022;2023-09-08T09:34:21;26.20;99.90
42803;DHT22;28447;48.682;9.022;2023-09-08T09:56:25;26.70;99.90
42803;DHT22;28447;48.682;9.022;2023-09-08T09:58:53;26.70;99.90
42803;DHT22;28447;48.682;9.022;2023-09-08T10:01:19;27.00;99.90
42803;DHT22;28447;48.682;9.022;2023-09-08T10:03:45;26.60;99.90
42803;DHT22;28447;48.682;9.022;2023-09-08T10:06:12;27.00;99.90
42803;DHT22;28447;48.682;9.022;2023-09-08T10:08:40;27.30;99.90
42803;DHT22;28447;48.682;9.022;2023-09-08T10:11:07;27.20;99.90
42803;DHT22;28447;48.682;9.022;2023-09-08T11:31:24;32.60;99.90
42803;DHT22;28447;48.682;9.022;2023-09-08T11:33:54;35.10;99.90
42803;DHT22;28447;48.682;9.022;2023-09-08T11:36:20;34.70;99.90
42803;DHT22;28447;48.682;9.022;2023-09-08T13:02:20;39.90;89.80
42803;DHT22;28447;48.682;9.022;2023-09-08T13:04:46;40.20;85.80
42803;DHT22;28447;48.682;9.022;2023-09-08T13:07:16;38.80;87.70
42803;DHT22;28447;48.682;9.022;2023-09-08T13:09:59;39.30;87.70
42803;DHT22;28447;48.682;9.022;2023-09-08T13:12:27;38.70;85.30
42803;DHT22;28447;48.682;9.022;2023-09-08T13:14:53;39.50;86.00
42803;DHT22;28447;48.682;9.022;2023-09-08T13:17:19;40.60;84.20
42803;DHT22;28447;48.682;9.022;2023-09-08T13:19:45;40.70;86.30
42803;DHT22;28447;48.682;9.022;2023-09-08T13:22:11;40.10;84.80
42803;DHT22;28447;48.682;9.022;2023-09-08T13:24:37;40.20;86.30
42803;DHT22;28447;48.682;9.022;2023-09-08T13:27:03;40.10;86.80
42803;DHT22;28447;48.682;9.022;2023-09-08T14:21:02;41.40;78.50
42803;DHT22;28447;48.682;9.022;2023-09-08T14:23:29;40.80;76.00
42803;DHT22;28447;48.682;9.022;2023-09-08T14:25:55;40.80;74.40
42803;DHT22;28447;48.682;9.022;2023-09-08T14:28:21;40.40;73.70
42803;DHT22;28447;48.682;9.022;2023-09-08T14:30:46;39.80;75.90
42803;DHT22;28447;48.682;9.022;2023-09-08T14:33:12;39.60;76.60
42803;DHT22;28447;48.682;9.022;2023-09-08T14:35:42;39.70;75.90
42803;DHT22;28447;48.682;9.022;2023-09-08T14:38:09;40.50;74.70
42803;DHT22;28447;48.682;9.022;2023-09-08T14:40:34;40.60;71.40
42803;DHT22;28447;48.682;9.022;2023-09-08T14:43:00;40.20;70.70
42803;DHT22;28447;48.682;9.022;2023-09-08T14:45:25;40.30;71.00
42803;DHT22;28447;48.682;9.022;2023-09-08T14:47:53;39.60;70.30
42803;DHT22;28447;48.682;9.022;2023-09-08T14:50:19;39.90;70.20
42803;DHT22;28447;48.682;9.022;2023-09-08T14:52:55;41.60;68.60
42803;DHT22;28447;48.682;9.022;2023-09-08T14:55:21;40.40;69.60
42803;DHT22;28447;48.682;9.022;2023-09-08T14:57:46;40.90;68.10
42803;DHT22;28447;48.682;9.022;2023-09-08T15:00:12;41.70;69.30
42803;DHT22;28447;48.682;9.022;2023-09-08T15:02:38;41.90;68.20
42803;DHT22;28447;48.682;9.022;2023-09-08T15:05:04;40.00;67.80
42803;DHT22;28447;48.682;9.022;2023-09-08T15:07:30;39.30;70.30
42803;DHT22;28447;48.682;9.022;2023-09-08T15:09:56;40.90;66.50
42803;DHT22;28447;48.682;9.022;2023-09-08T15:12:21;39.00;66.10
42803;DHT22;28447;48.682;9.022;2023-09-08T15:14:47;39.80;67.30
42803;DHT22;28447;48.682;9.022;2023-09-08T15:17:12;39.90;67.40
42803;DHT22;28447;48.682;9.022;2023-09-08T15:19:38;40.60;65.90
42803;DHT22;28447;48.682;9.022;2023-09-08T15:22:04;40.80;67.90
42803;DHT22;28447;48.682;9.022;2023-09-08T15:24:30;39.60;66.00
42803;DHT22;28447;48.682;9.022;2023-09-08T15:26:55;40.90;66.20
42803;DHT22;28447;48.682;9.022;2023-09-08T15:29:22;41.10;65.70
42803;DHT22;28447;48.682;9.022;2023-09-08T15:31:50;41.00;65.00
42803;DHT22;28447;48.682;9.022;2023-09-08T15:34:15;40.20;64.40
42803;DHT22;28447;48.682;9.022;2023-09-08T15:36:41;38.60;69.20
42803;DHT22;28447;48.682;9.022;2023-09-08T15:39:06;38.60;67.60
42803;DHT22;28447;48.682;9.022;2023-09-08T15:41:32;38.20;67.40
42803;DHT22;28447;48.682;9.022;2023-09-08T15:43:58;38.60;68.60
42803;DHT22;28447;48.682;9.022;2023-09-08T15:46:23;38.10;68.50
42803;DHT22;28447;48.682;9.022;2023-09-08T15:48:49;37.90;70.30
42803;DHT22;28447;48.682;9.022;2023-09-08T15:51:15;38.60;68.90
42803;DHT22;28447;48.682;9.022;2023-09-08T15:53:42;37.20;67.20
42803;DHT22;28447;48.682;9.022;2023-09-08T15:56:08;37.20;68.80
42803;DHT22;28447;48.682;9.022;2023-09-08T15:58:34;36.10;70.50
42803;DHT22;28447;48.682;9.022;2023-09-08T16:01:01;37.70;70.00
42803;DHT22;28447;48.682;9.022;2023-09-08T16:03:27;38.30;66.70
42803;DHT22;28447;48.682;9.022;2023-09-08T16:05:54;36.40;70.60
42803;DHT22;28447;48.682;9.022;2023-09-08T16:08:20;36.20;69.00
42803;DHT22;28447;48.682;9.022;2023-09-08T16:10:47;36.30;71.10
42803;DHT22;28447;48.682;9.022;2023-09-08T16:13:13;35.60;70.00
42803;DHT22;28447;48.682;9.022;2023-09-08T16:15:41;35.80;71.60
42803;DHT22;28447;48.682;9.022;2023-09-08T16:18:06;35.60;71.90
42803;DHT22;28447;48.682;9.022;2023-09-08T16:20:37;36.40;70.40
42803;DHT22;28447;48.682;9.022;2023-09-08T16:23:06;35.40;72.80
42803;DHT22;28447;48.682;9.022;2023-09-08T16:25:31;36.20;70.30
42803;DHT22;28447;48.682;9.022;2023-09-08T16:27:57;36.30;70.10
42803;DHT22;28447;48.682;9.022;2023-09-08T16:30:23;35.30;69.10
42803;DHT22;28447;48.682;9.022;2023-09-08T16:32:50;35.00;71.40
42803;DHT22;28447;48.682;9.022;2023-09-08T16:35:17;35.60;72.00
42803;DHT22;28447;48.682;9.022;2023-09-08T16:37:42;34.50;71.80
42803;DHT22;28447;48.682;9.022;2023-09-08T16:40:09;34.50;72.30
42803;DHT22;28447;48.682;9.022;2023-09-08T16:42:38;34.10;75.80
42803;DHT22;28447;48.682;9.022;2023-09-08T16:45:04;33.10;76.30
42803;DHT22;28447;48.682;9.022;2023-09-08T16:47:30;33.10;77.10
42803;DHT22;28447;48.682;9.022;2023-09-08T16:49:57;33.00;78.90
42803;DHT22;28447;48.682;9.022;2023-09-08T16:52:23;32.60;78.30
42803;DHT22;28447;48.682;9.022;2023-09-08T16:54:49;33.00;77.80
42803;DHT22;28447;48.682;9.022;2023-09-08T16:57:15;32.40;78.00
42803;DHT22;28447;48.682;9.022;2023-09-08T16:59:40;31.60;79.30
42803;DHT22;28447;48.682;9.022;2023-09-08T17:02:07;30.80;80.80
42803;DHT22;28447;48.682;9.022;2023-09-08T17:04:33;31.30;81.70
42803;DHT22;28447;48.682;9.022;2023-09-08T17:06:59;31.10;82.40
42803;DHT22;28447;48.682;9.022;2023-09-08T17:09:24;30.80;84.70
42803;DHT22;28447;48.682;9.022;2023-09-08T17:11:52;30.90;83.90
42803;DHT22;28447;48.682;9.022;2023-09-08T17:14:17;30.80;85.70
42803;DHT22;28447;48.682;9.022;2023-09-08T17:16:43;30.70;84.00
42803;DHT22;28447;48.682;9.022;2023-09-08T17:19:09;29.70;86.40
42803;DHT22;28447;48.682;9.022;2023-09-08T17:21:36;29.50;86.30
42803;DHT22;28447;48.682;9.022;2023-09-08T17:24:03;29.50;88.90
42803;DHT22;28447;48.682;9.022;2023-09-08T17:26:29;29.30;90.10
42803;DHT22;28447;48.682;9.022;2023-09-08T17:28:57;28.90;90.30
42803;DHT22;28447;48.682;9.022;2023-09-08T17:31:22;28.60;90.40
42803;DHT22;28447;48.682;9.022;2023-09-08T17:33:54;28.60;91.20
42803;DHT22;28447;48.682;9.022;2023-09-08T17:36:19;28.40;91.60
42803;DHT22;28447;48.682;9.022;2023-09-08T17:38:46;28.10;92.10
42803;DHT22;28447;48.682;9.022;2023-09-08T17:41:13;27.90;92.30
42803;DHT22;28447;48.682;9.022;2023-09-08T17:43:39;27.70;92.80
42803;DHT22;28447;48.682;9.022;2023-09-08T17:46:05;27.50;93.20
42803;DHT22;28447;48.682;9.022;2023-09-08T17:48:30;27.40;93.40
42803;DHT22;28447;48.682;9.022;2023-09-08T17:50:56;27.30;93.50
42803;DHT22;28447;48.682;9.022;2023-09-08T17:53:25;27.00;94.00
42803;DHT22;28447;48.682;9.022;2023-09-08T17:55:52;26.80;93.90
42803;DHT22;28447;48.682;9.022;2023-09-08T17:58:18;26.70;94.70
42803;DHT22;28447;48.682;9.022;2023-09-08T18:00:44;26.60;94.70
42803;DHT22;28447;48.682;9.022;2023-09-08T18:03:11;26.50;95.20
42803;DHT22;28447;48.682;9.022;2023-09-08T18:05:37;26.50;94.80
42803;DHT22;28447;48.682;9.022;2023-09-08T18:08:02;26.50;94.90
42803;DHT22;28447;48.682;9.022;2023-09-08T18:10:28;26.40;95.40
42803;DHT22;28447;48.682;9.022;2023-09-08T18:12:54;26.30;95.30
42803;DHT22;28447;48.682;9.022;2023-09-08T18:15:23;26.10;95.90
42803;DHT22;28447;48.682;9.022;2023-09-08T18:17:48;26.00;95.90
42803;DHT22;28447;48.682;9.022;2023-09-08T18:20:14;26.00;96.10
42803;DHT22;28447;48.682;9.022;2023-09-08T18:22:39;25.90;96.50
42803;DHT22;28447;48.682;9.022;2023-09-08T18:25:05;25.90;96.80
42803;DHT22;28447;48.682;9.022;2023-09-08T18:27:37;25.80;97.00
42803;DHT22;28447;48.682;9.022;2023-09-08T18:30:04;25.50;97.70
42803;DHT22;28447;48.682;9.022;2023-09-08T18:32:30;25.40;98.20
42803;DHT22;28447;48.682;9.022;2023-09-08T18:34:56;25.30;98.70
42803;DHT22;28447;48.682;9.022;2023-09-08T18:37:24;25.20;99.10
42803;DHT22;28447;48.682;9.022;2023-09-08T18:39:52;25.10;99.50
42803;DHT22;28447;48.682;9.022;2023-09-08T18:42:17;25.00;99.90
42803;DHT22;28447;48.682;9.022;2023-09-08T18:44:43;24.90;99.90
42803;DHT22;28447;48.682;9.022;2023-09-08T18:47:11;24.80;99.90
42803;DHT22;28447;48.682;9.022;2023-09-08T18:49:37;24.60;99.90
42803;DHT22;28447;48.682;9.022;2023-09-08T18:52:02;24.50;99.90
42803;DHT22;28447;48.682;9.022;2023-09-08T18:54:28;24.40;99.90
42803;DHT22;28447;48.682;9.022;2023-09-08T18:56:57;24.30;99.90
42803;DHT22;28447;48.682;9.022;2023-09-08T18:59:23;24.30;99.90
42803;DHT22;28447;48.682;9.022;2023-09-08T19:01:48;24.20;99.90
42803;DHT22;28447;48.682;9.022;2023-09-08T19:04:14;24.00;99.90
42803;DHT22;28447;48.682;9.022;2023-09-08T19:06:39;23.90;99.90
42803;DHT22;28447;48.682;9.022;2023-09-08T19:09:06;23.90;99.90
42803;DHT22;28447;48.682;9.022;2023-09-08T19:11:32;23.80;99.90
42803;DHT22;28447;48.682;9.022;2023-09-08T19:13:59;23.90;99.90
42803;DHT22;28447;48.682;9.022;2023-09-08T19:16:25;23.90;99.90
42803;DHT22;28447;48.682;9.022;2023-09-08T19:18:50;23.80;99.90
42803;DHT22;28447;48.682;9.022;2023-09-08T19:21:16;23.60;99.90
42803;DHT22;28447;48.682;9.022;2023-09-08T19:23:42;23.70;99.90
42803;DHT22;28447;48.682;9.022;2023-09-08T19:26:10;23.50;99.90
42803;DHT22;28447;48.682;9.022;2023-09-08T19:28:36;23.40;99.90
42803;DHT22;28447;48.682;9.022;2023-09-08T19:31:02;23.20;99.90
42803;DHT22;28447;48.682;9.022;2023-09-08T19:33:27;23.20;99.90
42803;DHT22;28447;48.682;9.022;2023-09-08T19:35:55;23.10;99.90
42803;DHT22;28447;48.682;9.022;2023-09-08T19:38:21;23.10;99.90
42803;DHT22;28447;48.682;9.022;2023-09-08T19:40:47;23.00;99.90
42803;DHT22;28447;48.682;9.022;2023-09-08T19:43:14;23.00;99.90
42803;DHT22;28447;48.682;9.022;2023-09-08T19:45:39;22.90;99.90
42803;DHT22;28447;48.682;9.022;2023-09-08T19:48:05;22.90;99.90
42803;DHT22;28447;48.682;9.022;2023-09-08T19:50:31;22.70;99.90
42803;DHT22;28447;48.682;9.022;2023-09-08T19:52:57;22.70;99.90
42803;DHT22;28447;48.682;9.022;2023-09-08T19:55:22;22.70;99.90
42803;DHT22;28447;48.682;9.022;2023-09-08T19:57:48;22.80;99.90
42803;DHT22;28447;48.682;9.022;2023-09-08T20:00:15;22.70;99.90
42803;DHT22;28447;48.682;9.022;2023-09-08T20:02:42;22.60;99.90
42803;DHT22;28447;48.682;9.022;2023-09-08T20:05:10;22.60;99.90
42803;DHT22;28447;48.682;9.022;2023-09-08T20:07:37;22.60;99.90
42803;DHT22;28447;48.682;9.022;2023-09-08T20:10:05;22.50;99.90
42803;DHT22;28447;48.682;9.022;2023-09-08T20:12:31;22.50;99.90
42803;DHT22;28447;48.682;9.022;2023-09-08T20:14:57;22.40;99.90
42803;DHT22;28447;48.682;9.022;2023-09-08T20:17:22;22.20;99.90
42803;DHT22;28447;48.682;9.022;2023-09-08T20:19:51;22.30;99.90
42803;DHT22;28447;48.682;9.022;2023-09-08T20:22:16;22.30;99.90
42803;DHT22;28447;48.682;9.022;2023-09-08T20:24:43;22.20;99.90
42803;DHT22;28447;48.682;9.022;2023-09-08T20:27:09;22.00;99.90
42803;DHT22;28447;48.682;9.022;2023-09-08T20:29:36;22.00;99.90
42803;DHT22;28447;48.682;9.022;2023-09-08T20:32:02;22.00;99.90
42803;DHT22;28447;48.682;9.022;2023-09-08T20:34:28;22.00;99.90
42803;DHT22;28447;48.682;9.022;2023-09-08T20:36:53;22.00;99.90
42803;DHT22;28447;48.682;9.022;2023-09-08T20:39:20;22.00;99.90
42803;DHT22;28447;48.682;9.022;2023-09-08T20:41:46;21.90;99.90
42803;DHT22;28447;48.682;9.022;2023-09-08T20:44:14;21.80;99.90
42803;DHT22;28447;48.682;9.022;2023-09-08T20:46:44;21.70;99.90
42803;DHT22;28447;48.682;9.022;2023-09-08T20:49:11;21.60;99.90
42803;DHT22;28447;48.682;9.022;2023-09-08T20:51:37;21.60;99.90
42803;DHT22;28447;48.682;9.022;2023-09-08T20:54:04;21.70;99.90
42803;DHT22;28447;48.682;9.022;2023-09-08T20:56:32;21.50;99.90
42803;DHT22;28447;48.682;9.022;2023-09-08T20:58:59;21.50;99.90
42803;DHT22;28447;48.682;9.022;2023-09-08T21:01:26;21.40;99.90
42803;DHT22;28447;48.682;9.022;2023-09-08T21:03:52;21.50;99.90
42803;DHT22;28447;48.682;9.022;2023-09-08T21:06:19;21.30;99.90
42803;DHT22;28447;48.682;9.022;2023-09-08T21:08:46;21.40;99.90
42803;DHT22;28447;48.682;9.022;2023-09-08T21:11:12;21.30;99.90
42803;DHT22;28447;48.682;9.022;2023-09-08T21:13:40;21.30;99.90
42803;DHT22;28447;48.682;9.022;2023-09-08T21:16:06;21.30;99.90
42803;DHT22;28447;48.682;9.022;2023-09-08T21:18:32;20.50;99.90
42803;DHT22;28447;48.682;9.022;2023-09-08T21:20:58;20.20;99.90
42803;DHT22;28447;48.682;9.022;2023-09-08T21:23:25;19.90;99.90
42803;DHT22;28447;48.682;9.022;2023-09-08T21:25:53;19.60;99.90
42803;DHT22;28447;48.682;9.022;2023-09-08T21:28:19;19.30;99.90
42803;DHT22;28447;48.682;9.022;2023-09-08T21:30:44;19.20;99.90
42803;DHT22;28447;48.682;9.022;2023-09-08T21:33:18;19.00;99.90
42803;DHT22;28447;48.682;9.022;2023-09-08T21:35:45;18.90;99.90
42803;DHT22;28447;48.682;9.022;2023-09-08T21:38:11;18.90;99.90
42803;DHT22;28447;48.682;9.022;2023-09-08T21:40:38;18.90;99.90
42803;DHT22;28447;48.682;9.022;2023-09-08T21:43:06;18.80;99.90
42803;DHT22;28447;48.682;9.022;2023-09-08T21:45:31;18.80;99.90
42803;DHT22;28447;48.682;9.022;2023-09-08T21:47:57;18.80;99.90
42803;DHT22;28447;48.682;9.022;2023-09-08T21:52:49;18.60;99.90
42803;DHT22;28447;48.682;9.022;2023-09-08T21:55:18;18.40;99.90
42803;DHT22;28447;48.682;9.022;2023-09-08T21:57:43;18.30;99.90
